sensor_id;sensor_type;location;lat;lon;timestamp;P1;durP1;ratioP1;P2;durP2;ratioP2
74658;SDS011;63186;51.204;6.536;2023-11-18T00:01:04;19.37;;;9.13;;
74658;SDS011;63186;51.204;6.536;2023-11-18T00:03:29;19.97;;;10.00;;
74658;SDS011;63186;51.204;6.536;2023-11-18T00:05:54;19.57;;;10.63;;
74658;SDS011;63186;51.204;6.536;2023-11-18T00:08:20;19.07;;;9.73;;
74658;SDS011;63186;51.204;6.536;2023-11-18T00:10:45;18.60;;;10.17;;
74658;SDS011;63186;51.204;6.536;2023-11-18T00:13:10;21.23;;;10.90;;
74658;SDS011;63186;51.204;6.536;2023-11-18T00:15:35;19.43;;;9.90;;
74658;SDS011;63186;51.204;6.536;2023-11-18T00:18:01;21.02;;;10.82;;
74658;SDS011;63186;51.204;6.536;2023-11-18T00:20:26;19.42;;;9.73;;
74658;SDS011;63186;51.204;6.536;2023-11-18T00:22:51;19.13;;;9.67;;
74658;SDS011;63186;51.204;6.536;2023-11-18T00:25:18;21.90;;;11.88;;
74658;SDS011;63186;51.204;6.536;2023-11-18T00:27:43;22.17;;;11.13;;
74658;SDS011;63186;51.204;6.536;2023-11-18T00:30:08;18.07;;;10.40;;
74658;SDS011;63186;51.204;6.536;2023-11-18T00:32:35;21.15;;;11.15;;
74658;SDS011;63186;51.204;6.536;2023-11-18T00:35:01;17.95;;;9.45;;
74658;SDS011;63186;51.204;6.536;2023-11-18T00:37:29;20.38;;;10.93;;
74658;SDS011;63186;51.204;6.536;2023-11-18T00:39:55;21.42;;;10.10;;
74658;SDS011;63186;51.204;6.536;2023-11-18T00:42:21;21.02;;;10.65;;
74658;SDS011;63186;51.204;6.536;2023-11-18T00:44:46;19.87;;;11.70;;
74658;SDS011;63186;51.204;6.536;2023-11-18T00:47:12;19.50;;;10.32;;
74658;SDS011;63186;51.204;6.536;2023-11-18T00:49:37;18.23;;;10.60;;
74658;SDS011;63186;51.204;6.536;2023-11-18T00:52:02;19.42;;;9.70;;
74658;SDS011;63186;51.204;6.536;2023-11-18T00:54:28;20.92;;;9.57;;
74658;SDS011;63186;51.204;6.536;2023-11-18T00:56:54;21.30;;;10.63;;
74658;SDS011;63186;51.204;6.536;2023-11-18T00:59:19;19.00;;;10.30;;
74658;SDS011;63186;51.204;6.536;2023-11-18T01:01:45;23.63;;;11.73;;
74658;SDS011;63186;51.204;6.536;2023-11-18T01:04:10;21.53;;;10.07;;
74658;SDS011;63186;51.204;6.536;2023-11-18T01:06:35;17.60;;;8.90;;
74658;SDS011;63186;51.204;6.536;2023-11-18T01:09:01;18.45;;;10.60;;
74658;SDS011;63186;51.204;6.536;2023-11-18T01:11:26;22.33;;;11.40;;
74658;SDS011;63186;51.204;6.536;2023-11-18T01:13:51;18.87;;;11.43;;
74658;SDS011;63186;51.204;6.536;2023-11-18T01:16:19;21.92;;;10.63;;
74658;SDS011;63186;51.204;6.536;2023-11-18T01:18:44;17.53;;;9.33;;
74658;SDS011;63186;51.204;6.536;2023-11-18T01:21:10;19.42;;;10.48;;
74658;SDS011;63186;51.204;6.536;2023-11-18T01:23:36;21.73;;;11.13;;
74658;SDS011;63186;51.204;6.536;2023-11-18T01:26:03;20.52;;;10.25;;
74658;SDS011;63186;51.204;6.536;2023-11-18T01:28:30;20.48;;;12.43;;
74658;SDS011;63186;51.204;6.536;2023-11-18T01:30:58;19.60;;;10.23;;
74658;SDS011;63186;51.204;6.536;2023-11-18T01:33:23;20.83;;;10.90;;
74658;SDS011;63186;51.204;6.536;2023-11-18T01:35:49;20.23;;;9.35;;
74658;SDS011;63186;51.204;6.536;2023-11-18T01:38:14;24.43;;;11.40;;
74658;SDS011;63186;51.204;6.536;2023-11-18T01:40:39;21.47;;;10.27;;
74658;SDS011;63186;51.204;6.536;2023-11-18T01:43:04;21.03;;;10.33;;
74658;SDS011;63186;51.204;6.536;2023-11-18T01:45:36;25.80;;;13.45;;
74658;SDS011;63186;51.204;6.536;2023-11-18T01:48:01;20.13;;;10.88;;
74658;SDS011;63186;51.204;6.536;2023-11-18T01:50:27;20.00;;;10.48;;
74658;SDS011;63186;51.204;6.536;2023-11-18T01:52:53;20.58;;;11.27;;
74658;SDS011;63186;51.204;6.536;2023-11-18T01:55:18;19.92;;;9.95;;
74658;SDS011;63186;51.204;6.536;2023-11-18T01:57:43;24.65;;;11.80;;
74658;SDS011;63186;51.204;6.536;2023-11-18T02:00:10;20.02;;;10.20;;
74658;SDS011;63186;51.204;6.536;2023-11-18T02:02:37;20.70;;;9.63;;
74658;SDS011;63186;51.204;6.536;2023-11-18T02:05:03;21.33;;;11.27;;
74658;SDS011;63186;51.204;6.536;2023-11-18T02:07:31;21.05;;;11.00;;
74658;SDS011;63186;51.204;6.536;2023-11-18T02:09:58;18.65;;;9.25;;
74658;SDS011;63186;51.204;6.536;2023-11-18T02:12:29;21.40;;;10.52;;
74658;SDS011;63186;51.204;6.536;2023-11-18T02:17:34;22.13;;;9.50;;
74658;SDS011;63186;51.204;6.536;2023-11-18T02:20:03;21.95;;;10.32;;
74658;SDS011;63186;51.204;6.536;2023-11-18T02:22:40;21.63;;;10.40;;
74658;SDS011;63186;51.204;6.536;2023-11-18T02:25:07;25.85;;;12.00;;
74658;SDS011;63186;51.204;6.536;2023-11-18T02:27:35;21.05;;;11.73;;
74658;SDS011;63186;51.204;6.536;2023-11-18T02:30:01;18.83;;;8.77;;
74658;SDS011;63186;51.204;6.536;2023-11-18T02:32:32;22.75;;;10.80;;
74658;SDS011;63186;51.204;6.536;2023-11-18T02:35:05;22.08;;;10.90;;
74658;SDS011;63186;51.204;6.536;2023-11-18T02:37:35;28.67;;;12.40;;
74658;SDS011;63186;51.204;6.536;2023-11-18T02:40:04;20.52;;;11.95;;
74658;SDS011;63186;51.204;6.536;2023-11-18T02:42:34;19.83;;;10.30;;
74658;SDS011;63186;51.204;6.536;2023-11-18T02:45:02;26.10;;;9.98;;
74658;SDS011;63186;51.204;6.536;2023-11-18T02:47:31;23.95;;;10.38;;
74658;SDS011;63186;51.204;6.536;2023-11-18T02:49:57;24.45;;;11.18;;
74658;SDS011;63186;51.204;6.536;2023-11-18T02:52:30;30.55;;;12.82;;
74658;SDS011;63186;51.204;6.536;2023-11-18T02:54:55;27.63;;;12.43;;
74658;SDS011;63186;51.204;6.536;2023-11-18T02:57:21;25.90;;;10.47;;
74658;SDS011;63186;51.204;6.536;2023-11-18T02:59:46;26.98;;;12.02;;
74658;SDS011;63186;51.204;6.536;2023-11-18T03:02:12;30.47;;;10.67;;
74658;SDS011;63186;51.204;6.536;2023-11-18T03:04:37;24.67;;;11.32;;
74658;SDS011;63186;51.204;6.536;2023-11-18T03:07:02;27.40;;;11.63;;
74658;SDS011;63186;51.204;6.536;2023-11-18T03:09:32;26.65;;;10.32;;
74658;SDS011;63186;51.204;6.536;2023-11-18T03:11:59;34.92;;;13.70;;
74658;SDS011;63186;51.204;6.536;2023-11-18T03:14:25;32.13;;;10.60;;
74658;SDS011;63186;51.204;6.536;2023-11-18T03:16:50;26.97;;;11.13;;
74658;SDS011;63186;51.204;6.536;2023-11-18T03:19:15;28.00;;;10.97;;
74658;SDS011;63186;51.204;6.536;2023-11-18T03:21:41;29.97;;;11.70;;
74658;SDS011;63186;51.204;6.536;2023-11-18T03:24:06;26.90;;;10.70;;
74658;SDS011;63186;51.204;6.536;2023-11-18T03:26:32;32.80;;;12.32;;
74658;SDS011;63186;51.204;6.536;2023-11-18T03:28:57;34.90;;;12.90;;
74658;SDS011;63186;51.204;6.536;2023-11-18T03:31:22;27.13;;;11.87;;
74658;SDS011;63186;51.204;6.536;2023-11-18T03:33:48;28.43;;;12.30;;
74658;SDS011;63186;51.204;6.536;2023-11-18T03:36:13;31.40;;;14.37;;
74658;SDS011;63186;51.204;6.536;2023-11-18T03:38:39;35.55;;;12.43;;
74658;SDS011;63186;51.204;6.536;2023-11-18T03:41:04;23.40;;;10.07;;
74658;SDS011;63186;51.204;6.536;2023-11-18T03:43:30;36.00;;;12.18;;
74658;SDS011;63186;51.204;6.536;2023-11-18T03:45:55;26.33;;;11.93;;
74658;SDS011;63186;51.204;6.536;2023-11-18T03:48:21;28.48;;;10.45;;
74658;SDS011;63186;51.204;6.536;2023-11-18T03:50:47;35.75;;;11.63;;
74658;SDS011;63186;51.204;6.536;2023-11-18T03:53:13;33.20;;;12.40;;
74658;SDS011;63186;51.204;6.536;2023-11-18T03:55:38;33.70;;;12.27;;
74658;SDS011;63186;51.204;6.536;2023-11-18T03:58:03;34.67;;;11.97;;
74658;SDS011;63186;51.204;6.536;2023-11-18T04:00:28;30.42;;;12.30;;
74658;SDS011;63186;51.204;6.536;2023-11-18T04:02:58;38.33;;;14.52;;
74658;SDS011;63186;51.204;6.536;2023-11-18T04:05:26;39.55;;;12.60;;
74658;SDS011;63186;51.204;6.536;2023-11-18T04:07:51;31.13;;;12.83;;
74658;SDS011;63186;51.204;6.536;2023-11-18T04:10:16;32.13;;;12.48;;
74658;SDS011;63186;51.204;6.536;2023-11-18T04:12:43;38.83;;;14.73;;
74658;SDS011;63186;51.204;6.536;2023-11-18T04:15:11;34.05;;;15.30;;
74658;SDS011;63186;51.204;6.536;2023-11-18T04:17:37;36.75;;;12.95;;
74658;SDS011;63186;51.204;6.536;2023-11-18T04:20:03;29.80;;;13.02;;
74658;SDS011;63186;51.204;6.536;2023-11-18T04:22:33;39.55;;;15.73;;
74658;SDS011;63186;51.204;6.536;2023-11-18T04:24:58;32.70;;;13.70;;
74658;SDS011;63186;51.204;6.536;2023-11-18T04:27:24;34.28;;;12.52;;
74658;SDS011;63186;51.204;6.536;2023-11-18T04:29:49;31.83;;;13.30;;
74658;SDS011;63186;51.204;6.536;2023-11-18T04:32:14;30.03;;;13.77;;
74658;SDS011;63186;51.204;6.536;2023-11-18T04:34:40;32.58;;;14.13;;
74658;SDS011;63186;51.204;6.536;2023-11-18T04:37:07;29.48;;;11.40;;
74658;SDS011;63186;51.204;6.536;2023-11-18T04:39:33;31.98;;;12.80;;
74658;SDS011;63186;51.204;6.536;2023-11-18T04:41:58;26.23;;;11.93;;
74658;SDS011;63186;51.204;6.536;2023-11-18T04:44:23;37.85;;;13.90;;
74658;SDS011;63186;51.204;6.536;2023-11-18T04:46:49;35.22;;;14.05;;
74658;SDS011;63186;51.204;6.536;2023-11-18T04:49:15;33.50;;;11.65;;
74658;SDS011;63186;51.204;6.536;2023-11-18T04:51:40;32.17;;;12.90;;
74658;SDS011;63186;51.204;6.536;2023-11-18T04:54:05;32.57;;;11.57;;
74658;SDS011;63186;51.204;6.536;2023-11-18T04:56:32;28.13;;;10.88;;
74658;SDS011;63186;51.204;6.536;2023-11-18T04:59:00;29.05;;;11.95;;
74658;SDS011;63186;51.204;6.536;2023-11-18T05:01:25;31.58;;;13.75;;
74658;SDS011;63186;51.204;6.536;2023-11-18T05:03:50;29.83;;;12.33;;
74658;SDS011;63186;51.204;6.536;2023-11-18T05:06:16;29.97;;;11.30;;
74658;SDS011;63186;51.204;6.536;2023-11-18T05:08:41;28.60;;;11.97;;
74658;SDS011;63186;51.204;6.536;2023-11-18T05:11:06;29.10;;;12.90;;
74658;SDS011;63186;51.204;6.536;2023-11-18T05:13:31;31.37;;;12.53;;
74658;SDS011;63186;51.204;6.536;2023-11-18T05:15:58;30.15;;;12.73;;
74658;SDS011;63186;51.204;6.536;2023-11-18T05:18:24;31.47;;;13.20;;
74658;SDS011;63186;51.204;6.536;2023-11-18T05:20:49;28.53;;;12.80;;
74658;SDS011;63186;51.204;6.536;2023-11-18T05:23:15;26.02;;;12.15;;
74658;SDS011;63186;51.204;6.536;2023-11-18T05:25:42;30.90;;;11.17;;
74658;SDS011;63186;51.204;6.536;2023-11-18T05:28:11;27.77;;;16.10;;
74658;SDS011;63186;51.204;6.536;2023-11-18T05:30:36;30.17;;;13.30;;
74658;SDS011;63186;51.204;6.536;2023-11-18T05:33:03;27.70;;;12.75;;
74658;SDS011;63186;51.204;6.536;2023-11-18T05:35:32;29.38;;;11.07;;
74658;SDS011;63186;51.204;6.536;2023-11-18T05:37:58;28.65;;;11.20;;
74658;SDS011;63186;51.204;6.536;2023-11-18T05:40:24;27.65;;;12.40;;
74658;SDS011;63186;51.204;6.536;2023-11-18T05:42:50;25.95;;;10.00;;
74658;SDS011;63186;51.204;6.536;2023-11-18T05:45:17;26.45;;;12.00;;
74658;SDS011;63186;51.204;6.536;2023-11-18T05:47:55;25.83;;;10.35;;
74658;SDS011;63186;51.204;6.536;2023-11-18T05:50:22;28.52;;;11.98;;
74658;SDS011;63186;51.204;6.536;2023-11-18T05:52:49;30.33;;;12.05;;
74658;SDS011;63186;51.204;6.536;2023-11-18T05:55:15;24.98;;;11.70;;
74658;SDS011;63186;51.204;6.536;2023-11-18T05:57:41;27.10;;;11.82;;
74658;SDS011;63186;51.204;6.536;2023-11-18T06:00:11;23.98;;;10.50;;
74658;SDS011;63186;51.204;6.536;2023-11-18T06:02:40;22.55;;;10.45;;
74658;SDS011;63186;51.204;6.536;2023-11-18T06:05:08;26.10;;;11.05;;
74658;SDS011;63186;51.204;6.536;2023-11-18T06:07:34;25.38;;;11.63;;
74658;SDS011;63186;51.204;6.536;2023-11-18T06:10:00;22.20;;;10.27;;
74658;SDS011;63186;51.204;6.536;2023-11-18T06:12:26;24.60;;;10.88;;
74658;SDS011;63186;51.204;6.536;2023-11-18T06:14:52;22.00;;;8.67;;
74658;SDS011;63186;51.204;6.536;2023-11-18T06:17:17;26.23;;;11.00;;
74658;SDS011;63186;51.204;6.536;2023-11-18T06:19:44;22.85;;;10.45;;
74658;SDS011;63186;51.204;6.536;2023-11-18T06:22:09;20.08;;;9.23;;
74658;SDS011;63186;51.204;6.536;2023-11-18T06:24:35;23.63;;;10.90;;
74658;SDS011;63186;51.204;6.536;2023-11-18T06:27:01;24.85;;;11.38;;
74658;SDS011;63186;51.204;6.536;2023-11-18T06:29:26;23.33;;;10.73;;
74658;SDS011;63186;51.204;6.536;2023-11-18T06:31:52;24.75;;;10.82;;
74658;SDS011;63186;51.204;6.536;2023-11-18T06:34:17;22.30;;;10.57;;
74658;SDS011;63186;51.204;6.536;2023-11-18T06:36:45;27.63;;;10.57;;
74658;SDS011;63186;51.204;6.536;2023-11-18T06:39:11;21.20;;;10.25;;
74658;SDS011;63186;51.204;6.536;2023-11-18T06:41:38;22.75;;;9.50;;
74658;SDS011;63186;51.204;6.536;2023-11-18T06:44:13;18.45;;;9.15;;
74658;SDS011;63186;51.204;6.536;2023-11-18T06:46:42;20.38;;;11.05;;
74658;SDS011;63186;51.204;6.536;2023-11-18T06:49:09;24.13;;;10.18;;
74658;SDS011;63186;51.204;6.536;2023-11-18T06:51:40;22.83;;;10.00;;
74658;SDS011;63186;51.204;6.536;2023-11-18T06:54:05;24.13;;;11.30;;
74658;SDS011;63186;51.204;6.536;2023-11-18T06:56:34;21.35;;;10.35;;
74658;SDS011;63186;51.204;6.536;2023-11-18T06:59:01;25.10;;;9.90;;
74658;SDS011;63186;51.204;6.536;2023-11-18T07:01:27;21.53;;;10.03;;
74658;SDS011;63186;51.204;6.536;2023-11-18T07:03:53;20.20;;;10.93;;
74658;SDS011;63186;51.204;6.536;2023-11-18T07:06:18;21.47;;;10.23;;
74658;SDS011;63186;51.204;6.536;2023-11-18T07:08:48;23.98;;;12.75;;
74658;SDS011;63186;51.204;6.536;2023-11-18T07:11:14;23.52;;;9.27;;
74658;SDS011;63186;51.204;6.536;2023-11-18T07:13:43;23.65;;;10.70;;
74658;SDS011;63186;51.204;6.536;2023-11-18T07:16:09;29.25;;;10.70;;
74658;SDS011;63186;51.204;6.536;2023-11-18T07:18:35;25.02;;;10.77;;
74658;SDS011;63186;51.204;6.536;2023-11-18T07:21:02;17.88;;;9.85;;
74658;SDS011;63186;51.204;6.536;2023-11-18T07:23:29;21.33;;;8.98;;
74658;SDS011;63186;51.204;6.536;2023-11-18T07:25:55;22.90;;;10.85;;
74658;SDS011;63186;51.204;6.536;2023-11-18T07:28:21;21.25;;;10.02;;
74658;SDS011;63186;51.204;6.536;2023-11-18T07:30:46;21.20;;;10.18;;
74658;SDS011;63186;51.204;6.536;2023-11-18T07:33:15;20.90;;;10.75;;
74658;SDS011;63186;51.204;6.536;2023-11-18T07:35:44;23.08;;;9.38;;
74658;SDS011;63186;51.204;6.536;2023-11-18T07:38:11;19.83;;;9.25;;
74658;SDS011;63186;51.204;6.536;2023-11-18T07:40:37;21.75;;;9.98;;
74658;SDS011;63186;51.204;6.536;2023-11-18T07:43:07;22.35;;;9.63;;
74658;SDS011;63186;51.204;6.536;2023-11-18T07:45:36;21.55;;;8.75;;
74658;SDS011;63186;51.204;6.536;2023-11-18T07:48:06;18.92;;;9.68;;
74658;SDS011;63186;51.204;6.536;2023-11-18T07:50:35;23.63;;;11.35;;
74658;SDS011;63186;51.204;6.536;2023-11-18T07:53:01;22.77;;;8.77;;
74658;SDS011;63186;51.204;6.536;2023-11-18T07:55:27;18.60;;;7.63;;
74658;SDS011;63186;51.204;6.536;2023-11-18T07:57:53;17.92;;;8.55;;
74658;SDS011;63186;51.204;6.536;2023-11-18T08:00:19;18.03;;;8.73;;
74658;SDS011;63186;51.204;6.536;2023-11-18T08:02:44;23.23;;;10.10;;
74658;SDS011;63186;51.204;6.536;2023-11-18T08:05:09;20.50;;;8.37;;
74658;SDS011;63186;51.204;6.536;2023-11-18T08:07:38;17.75;;;8.38;;
74658;SDS011;63186;51.204;6.536;2023-11-18T08:10:05;20.13;;;9.05;;
74658;SDS011;63186;51.204;6.536;2023-11-18T08:12:31;18.30;;;8.57;;
74658;SDS011;63186;51.204;6.536;2023-11-18T08:14:57;17.08;;;7.90;;
74658;SDS011;63186;51.204;6.536;2023-11-18T08:17:26;15.60;;;8.30;;
74658;SDS011;63186;51.204;6.536;2023-11-18T08:19:54;16.48;;;7.90;;
74658;SDS011;63186;51.204;6.536;2023-11-18T08:22:20;15.40;;;8.07;;
74658;SDS011;63186;51.204;6.536;2023-11-18T08:24:48;15.07;;;6.80;;
74658;SDS011;63186;51.204;6.536;2023-11-18T08:27:13;15.90;;;7.20;;
74658;SDS011;63186;51.204;6.536;2023-11-18T08:29:39;17.85;;;8.35;;
74658;SDS011;63186;51.204;6.536;2023-11-18T08:32:05;18.08;;;6.97;;
74658;SDS011;63186;51.204;6.536;2023-11-18T08:34:31;14.07;;;7.90;;
74658;SDS011;63186;51.204;6.536;2023-11-18T08:37:00;20.15;;;8.27;;
74658;SDS011;63186;51.204;6.536;2023-11-18T08:39:26;15.30;;;7.15;;
74658;SDS011;63186;51.204;6.536;2023-11-18T08:41:54;14.32;;;7.25;;
74658;SDS011;63186;51.204;6.536;2023-11-18T08:44:19;17.03;;;7.13;;
74658;SDS011;63186;51.204;6.536;2023-11-18T08:46:44;15.33;;;6.70;;
74658;SDS011;63186;51.204;6.536;2023-11-18T08:49:09;12.37;;;7.30;;
74658;SDS011;63186;51.204;6.536;2023-11-18T08:51:37;16.00;;;6.60;;
74658;SDS011;63186;51.204;6.536;2023-11-18T08:54:06;17.13;;;7.13;;
74658;SDS011;63186;51.204;6.536;2023-11-18T08:56:47;20.95;;;7.47;;
74658;SDS011;63186;51.204;6.536;2023-11-18T08:59:19;18.83;;;8.70;;
74658;SDS011;63186;51.204;6.536;2023-11-18T09:01:53;17.33;;;7.22;;
74658;SDS011;63186;51.204;6.536;2023-11-18T09:04:27;14.20;;;7.20;;
74658;SDS011;63186;51.204;6.536;2023-11-18T09:06:53;17.08;;;7.80;;
74658;SDS011;63186;51.204;6.536;2023-11-18T09:09:18;16.75;;;7.90;;
74658;SDS011;63186;51.204;6.536;2023-11-18T09:11:51;15.38;;;7.78;;
74658;SDS011;63186;51.204;6.536;2023-11-18T09:14:16;16.27;;;6.97;;
74658;SDS011;63186;51.204;6.536;2023-11-18T09:16:44;14.88;;;7.43;;
74658;SDS011;63186;51.204;6.536;2023-11-18T09:19:09;17.42;;;6.72;;
74658;SDS011;63186;51.204;6.536;2023-11-18T09:21:35;15.20;;;6.55;;
74658;SDS011;63186;51.204;6.536;2023-11-18T09:24:01;17.05;;;8.05;;
74658;SDS011;63186;51.204;6.536;2023-11-18T09:26:30;14.63;;;6.40;;
74658;SDS011;63186;51.204;6.536;2023-11-18T09:28:56;14.93;;;7.53;;
74658;SDS011;63186;51.204;6.536;2023-11-18T09:31:22;16.55;;;7.55;;
74658;SDS011;63186;51.204;6.536;2023-11-18T09:33:47;16.90;;;7.78;;
74658;SDS011;63186;51.204;6.536;2023-11-18T09:36:17;12.88;;;6.05;;
74658;SDS011;63186;51.204;6.536;2023-11-18T09:38:43;17.50;;;6.80;;
74658;SDS011;63186;51.204;6.536;2023-11-18T09:41:11;15.40;;;6.50;;
74658;SDS011;63186;51.204;6.536;2023-11-18T09:43:37;13.27;;;6.25;;
74658;SDS011;63186;51.204;6.536;2023-11-18T09:46:16;16.85;;;6.85;;
74658;SDS011;63186;51.204;6.536;2023-11-18T09:48:44;12.75;;;6.38;;
74658;SDS011;63186;51.204;6.536;2023-11-18T09:51:27;13.75;;;6.70;;
74658;SDS011;63186;51.204;6.536;2023-11-18T09:53:55;12.75;;;6.85;;
74658;SDS011;63186;51.204;6.536;2023-11-18T09:59:37;13.90;;;5.38;;
74658;SDS011;63186;51.204;6.536;2023-11-18T10:02:09;14.63;;;7.20;;
74658;SDS011;63186;51.204;6.536;2023-11-18T10:04:35;13.82;;;6.43;;
74658;SDS011;63186;51.204;6.536;2023-11-18T10:07:02;16.17;;;6.95;;
74658;SDS011;63186;51.204;6.536;2023-11-18T10:09:28;15.88;;;6.95;;
74658;SDS011;63186;51.204;6.536;2023-11-18T10:12:02;13.73;;;6.50;;
74658;SDS011;63186;51.204;6.536;2023-11-18T10:14:31;14.02;;;6.50;;
74658;SDS011;63186;51.204;6.536;2023-11-18T10:16:57;11.95;;;6.10;;
74658;SDS011;63186;51.204;6.536;2023-11-18T10:19:22;14.10;;;6.28;;
74658;SDS011;63186;51.204;6.536;2023-11-18T10:21:50;18.52;;;7.30;;
74658;SDS011;63186;51.204;6.536;2023-11-18T10:24:16;12.18;;;5.70;;
74658;SDS011;63186;51.204;6.536;2023-11-18T10:26:45;19.05;;;7.15;;
74658;SDS011;63186;51.204;6.536;2023-11-18T10:29:24;13.73;;;6.43;;
74658;SDS011;63186;51.204;6.536;2023-11-18T10:32:01;15.25;;;6.72;;
74658;SDS011;63186;51.204;6.536;2023-11-18T10:34:33;13.23;;;6.20;;
74658;SDS011;63186;51.204;6.536;2023-11-18T10:37:00;13.15;;;6.03;;
74658;SDS011;63186;51.204;6.536;2023-11-18T10:39:31;11.70;;;5.20;;
74658;SDS011;63186;51.204;6.536;2023-11-18T10:42:00;14.25;;;6.82;;
74658;SDS011;63186;51.204;6.536;2023-11-18T10:44:27;13.35;;;6.15;;
74658;SDS011;63186;51.204;6.536;2023-11-18T10:46:54;12.38;;;6.35;;
74658;SDS011;63186;51.204;6.536;2023-11-18T10:49:21;13.15;;;5.10;;
74658;SDS011;63186;51.204;6.536;2023-11-18T10:51:47;14.55;;;6.45;;
74658;SDS011;63186;51.204;6.536;2023-11-18T10:54:12;13.23;;;6.53;;
74658;SDS011;63186;51.204;6.536;2023-11-18T10:56:46;13.20;;;6.07;;
74658;SDS011;63186;51.204;6.536;2023-11-18T10:59:12;13.10;;;5.57;;
74658;SDS011;63186;51.204;6.536;2023-11-18T11:01:41;14.48;;;7.13;;
74658;SDS011;63186;51.204;6.536;2023-11-18T11:04:08;11.48;;;5.47;;
74658;SDS011;63186;51.204;6.536;2023-11-18T11:06:35;12.23;;;6.00;;
74658;SDS011;63186;51.204;6.536;2023-11-18T11:09:07;16.20;;;7.05;;
74658;SDS011;63186;51.204;6.536;2023-11-18T11:11:59;14.45;;;6.50;;
74658;SDS011;63186;51.204;6.536;2023-11-18T11:14:33;13.18;;;5.90;;
74658;SDS011;63186;51.204;6.536;2023-11-18T11:17:06;12.57;;;6.25;;
74658;SDS011;63186;51.204;6.536;2023-11-18T11:22:47;12.68;;;5.60;;
74658;SDS011;63186;51.204;6.536;2023-11-18T11:25:24;14.55;;;6.60;;
74658;SDS011;63186;51.204;6.536;2023-11-18T11:28:01;13.80;;;5.53;;
74658;SDS011;63186;51.204;6.536;2023-11-18T11:30:45;9.73;;;4.85;;
74658;SDS011;63186;51.204;6.536;2023-11-18T11:36:07;17.75;;;5.85;;
74658;SDS011;63186;51.204;6.536;2023-11-18T11:38:36;10.80;;;4.97;;
74658;SDS011;63186;51.204;6.536;2023-11-18T11:41:02;13.00;;;5.65;;
74658;SDS011;63186;51.204;6.536;2023-11-18T11:43:30;11.88;;;5.15;;
74658;SDS011;63186;51.204;6.536;2023-11-18T11:45:59;11.50;;;5.43;;
74658;SDS011;63186;51.204;6.536;2023-11-18T11:48:34;9.98;;;5.30;;
74658;SDS011;63186;51.204;6.536;2023-11-18T11:54:09;8.73;;;4.50;;
74658;SDS011;63186;51.204;6.536;2023-11-18T11:56:43;13.63;;;5.00;;
74658;SDS011;63186;51.204;6.536;2023-11-18T11:59:12;10.63;;;4.60;;
74658;SDS011;63186;51.204;6.536;2023-11-18T12:01:37;13.63;;;5.70;;
74658;SDS011;63186;51.204;6.536;2023-11-18T12:04:03;10.27;;;4.30;;
74658;SDS011;63186;51.204;6.536;2023-11-18T12:06:41;9.30;;;4.90;;
74658;SDS011;63186;51.204;6.536;2023-11-18T12:09:09;9.88;;;4.40;;
74658;SDS011;63186;51.204;6.536;2023-11-18T12:11:35;10.27;;;4.18;;
74658;SDS011;63186;51.204;6.536;2023-11-18T12:14:08;7.80;;;3.42;;
74658;SDS011;63186;51.204;6.536;2023-11-18T12:17:01;9.05;;;3.85;;
74658;SDS011;63186;51.204;6.536;2023-11-18T12:19:35;8.25;;;3.30;;
74658;SDS011;63186;51.204;6.536;2023-11-18T12:22:14;5.65;;;2.63;;
74658;SDS011;63186;51.204;6.536;2023-11-18T12:25:28;5.30;;;2.35;;
74658;SDS011;63186;51.204;6.536;2023-11-18T12:27:44;4.78;;;2.15;;
74658;SDS011;63186;51.204;6.536;2023-11-18T12:35:23;8.18;;;3.42;;
74658;SDS011;63186;51.204;6.536;2023-11-18T12:43:16;10.25;;;3.90;;
74658;SDS011;63186;51.204;6.536;2023-11-18T12:48:25;7.40;;;3.65;;
74658;SDS011;63186;51.204;6.536;2023-11-18T12:50:57;7.45;;;3.42;;
74658;SDS011;63186;51.204;6.536;2023-11-18T12:53:23;13.98;;;4.10;;
74658;SDS011;63186;51.204;6.536;2023-11-18T12:55:50;9.25;;;3.50;;
74658;SDS011;63186;51.204;6.536;2023-11-18T12:58:17;9.02;;;4.30;;
74658;SDS011;63186;51.204;6.536;2023-11-18T13:00:43;10.13;;;4.22;;
74658;SDS011;63186;51.204;6.536;2023-11-18T13:03:10;7.90;;;3.38;;
74658;SDS011;63186;51.204;6.536;2023-11-18T13:05:36;9.52;;;3.45;;
74658;SDS011;63186;51.204;6.536;2023-11-18T13:08:02;9.52;;;3.58;;
74658;SDS011;63186;51.204;6.536;2023-11-18T13:10:28;8.65;;;3.50;;
74658;SDS011;63186;51.204;6.536;2023-11-18T13:12:53;7.25;;;3.30;;
74658;SDS011;63186;51.204;6.536;2023-11-18T13:15:19;8.57;;;3.20;;
74658;SDS011;63186;51.204;6.536;2023-11-18T13:17:58;7.25;;;3.08;;
74658;SDS011;63186;51.204;6.536;2023-11-18T13:20:27;6.78;;;2.88;;
74658;SDS011;63186;51.204;6.536;2023-11-18T13:22:54;8.13;;;2.88;;
74658;SDS011;63186;51.204;6.536;2023-11-18T13:25:21;8.07;;;3.63;;
74658;SDS011;63186;51.204;6.536;2023-11-18T13:27:49;8.65;;;3.63;;
74658;SDS011;63186;51.204;6.536;2023-11-18T13:30:15;7.15;;;3.00;;
74658;SDS011;63186;51.204;6.536;2023-11-18T13:32:42;5.25;;;2.75;;
74658;SDS011;63186;51.204;6.536;2023-11-18T13:35:08;5.97;;;3.10;;
74658;SDS011;63186;51.204;6.536;2023-11-18T13:37:35;6.25;;;3.10;;
74658;SDS011;63186;51.204;6.536;2023-11-18T13:40:01;7.03;;;2.65;;
74658;SDS011;63186;51.204;6.536;2023-11-18T13:42:30;7.43;;;2.60;;
74658;SDS011;63186;51.204;6.536;2023-11-18T13:45:11;8.23;;;3.42;;
74658;SDS011;63186;51.204;6.536;2023-11-18T13:47:40;8.10;;;3.03;;
74658;SDS011;63186;51.204;6.536;2023-11-18T13:50:07;6.07;;;2.67;;
74658;SDS011;63186;51.204;6.536;2023-11-18T13:52:34;7.50;;;2.50;;
74658;SDS011;63186;51.204;6.536;2023-11-18T13:54:59;8.30;;;2.65;;
74658;SDS011;63186;51.204;6.536;2023-11-18T13:57:25;9.13;;;2.78;;
74658;SDS011;63186;51.204;6.536;2023-11-18T13:59:51;5.93;;;2.53;;
74658;SDS011;63186;51.204;6.536;2023-11-18T14:02:16;5.20;;;2.17;;
74658;SDS011;63186;51.204;6.536;2023-11-18T14:04:42;7.80;;;2.53;;
74658;SDS011;63186;51.204;6.536;2023-11-18T14:07:09;6.65;;;2.60;;
74658;SDS011;63186;51.204;6.536;2023-11-18T14:09:38;7.25;;;3.20;;
74658;SDS011;63186;51.204;6.536;2023-11-18T14:12:07;8.25;;;2.53;;
74658;SDS011;63186;51.204;6.536;2023-11-18T14:14:33;8.90;;;3.28;;
74658;SDS011;63186;51.204;6.536;2023-11-18T14:16:58;6.13;;;2.43;;
74658;SDS011;63186;51.204;6.536;2023-11-18T14:19:24;5.73;;;2.67;;
74658;SDS011;63186;51.204;6.536;2023-11-18T14:21:50;6.80;;;2.85;;
74658;SDS011;63186;51.204;6.536;2023-11-18T14:24:16;6.97;;;2.70;;
74658;SDS011;63186;51.204;6.536;2023-11-18T14:26:42;8.50;;;2.65;;
74658;SDS011;63186;51.204;6.536;2023-11-18T14:29:08;6.03;;;3.05;;
74658;SDS011;63186;51.204;6.536;2023-11-18T14:31:34;8.98;;;3.45;;
74658;SDS011;63186;51.204;6.536;2023-11-18T14:33:59;6.67;;;2.73;;
74658;SDS011;63186;51.204;6.536;2023-11-18T14:36:25;6.78;;;3.63;;
74658;SDS011;63186;51.204;6.536;2023-11-18T14:38:51;7.53;;;3.25;;
74658;SDS011;63186;51.204;6.536;2023-11-18T14:41:16;9.88;;;3.83;;
74658;SDS011;63186;51.204;6.536;2023-11-18T14:43:42;7.35;;;3.20;;
74658;SDS011;63186;51.204;6.536;2023-11-18T14:46:07;6.40;;;3.03;;
74658;SDS011;63186;51.204;6.536;2023-11-18T14:48:33;7.85;;;3.15;;
74658;SDS011;63186;51.204;6.536;2023-11-18T14:50:58;6.87;;;2.97;;
74658;SDS011;63186;51.204;6.536;2023-11-18T14:53:25;5.60;;;2.33;;
74658;SDS011;63186;51.204;6.536;2023-11-18T14:55:50;7.97;;;2.70;;
74658;SDS011;63186;51.204;6.536;2023-11-18T14:58:16;5.28;;;2.50;;
74658;SDS011;63186;51.204;6.536;2023-11-18T15:00:41;6.40;;;2.72;;